sensor_id;sensor_type;location;lat;lon;timestamp;pressure;altitude;pressure_sealevel;temperature;humidity
51195;BME280;37259;49.972;19.850;2023-01-25T00:01:02;100720;;;1.4;90.8
51195;BME280;37259;49.972;19.850;2023-01-25T00:01:58;100720;;;1.4;90.8
51195;BME280;37259;49.972;19.850;2023-01-25T00:02:58;100720;;;1.4;90.8
51195;BME280;37259;49.972;19.850;2023-01-25T00:03:58;100720;;;1.4;90.8
51195;BME280;37259;49.972;19.850;2023-01-25T00:04:58;100720;;;1.3;90.7
51195;BME280;37259;49.972;19.850;2023-01-25T00:05:58;100720;;;1.3;90.7
51195;BME280;37259;49.972;19.850;2023-01-25T00:06:58;100710;;;1.2;90.7
51195;BME280;37259;49.972;19.850;2023-01-25T00:07:58;100710;;;1.2;90.7
51195;BME280;37259;49.972;19.850;2023-01-25T00:08:58;100710;;;1.1;90.7
51195;BME280;37259;49.972;19.850;2023-01-25T00:09:58;100710;;;1.1;90.7
51195;BME280;37259;49.972;19.850;2023-01-25T00:10:58;100700;;;1.2;90.9
51195;BME280;37259;49.972;19.850;2023-01-25T00:11:58;100700;;;1.2;90.9
51195;BME280;37259;49.972;19.850;2023-01-25T00:12:58;100700;;;1.2;90.9
51195;BME280;37259;49.972;19.850;2023-01-25T00:13:58;100700;;;1.2;90.9
51195;BME280;37259;49.972;19.850;2023-01-25T00:14:58;100700;;;1.2;90.9
51195;BME280;37259;49.972;19.850;2023-01-25T00:15:59;100710;;;1.2;91
51195;BME280;37259;49.972;19.850;2023-01-25T00:16:58;100710;;;1.2;91
51195;BME280;37259;49.972;19.850;2023-01-25T00:17:58;100710;;;1.2;91
51195;BME280;37259;49.972;19.850;2023-01-25T00:18:58;100710;;;1.2;91
51195;BME280;37259;49.972;19.850;2023-01-25T00:19:58;100700;;;1.1;91
51195;BME280;37259;49.972;19.850;2023-01-25T00:20:58;100700;;;1.1;91.1
51195;BME280;37259;49.972;19.850;2023-01-25T00:21:58;100700;;;1.1;91.1
51195;BME280;37259;49.972;19.850;2023-01-25T00:22:58;100700;;;1.2;91.1
51195;BME280;37259;49.972;19.850;2023-01-25T00:23:58;100700;;;1.2;91.1
51195;BME280;37259;49.972;19.850;2023-01-25T00:24:58;100700;;;1.2;91.1
51195;BME280;37259;49.972;19.850;2023-01-25T00:25:58;100700;;;1.2;91.1
51195;BME280;37259;49.972;19.850;2023-01-25T00:26:58;100700;;;1.3;91.1
51195;BME280;37259;49.972;19.850;2023-01-25T00:27:58;100700;;;1.3;91
51195;BME280;37259;49.972;19.850;2023-01-25T00:28:58;100700;;;1.3;91
51195;BME280;37259;49.972;19.850;2023-01-25T00:29:58;100700;;;1.3;91
51195;BME280;37259;49.972;19.850;2023-01-25T00:30:58;100700;;;1.3;90.9
51195;BME280;37259;49.972;19.850;2023-01-25T00:32:01;100690;;;1.3;90.9
51195;BME280;37259;49.972;19.850;2023-01-25T00:33:01;100690;;;1.3;90.9
51195;BME280;37259;49.972;19.850;2023-01-25T00:34:00;100700;;;1.3;90.8
51195;BME280;37259;49.972;19.850;2023-01-25T00:34:58;100700;;;1.3;90.8
51195;BME280;37259;49.972;19.850;2023-01-25T00:35:58;100700;;;1.3;90.8
51195;BME280;37259;49.972;19.850;2023-01-25T00:37:00;100700;;;1.3;90.8
51195;BME280;37259;49.972;19.850;2023-01-25T00:38:00;100700;;;1.3;90.8
51195;BME280;37259;49.972;19.850;2023-01-25T00:38:58;100700;;;1.3;90.8
51195;BME280;37259;49.972;19.850;2023-01-25T00:39:58;100700;;;1.3;90.8
51195;BME280;37259;49.972;19.850;2023-01-25T00:40:58;100700;;;1.3;90.8
51195;BME280;37259;49.972;19.850;2023-01-25T00:41:58;100700;;;1.3;90.8
51195;BME280;37259;49.972;19.850;2023-01-25T00:42:58;100700;;;1.3;90.7
51195;BME280;37259;49.972;19.850;2023-01-25T00:43:58;100700;;;1.3;90.7
51195;BME280;37259;49.972;19.850;2023-01-25T00:44:58;100690;;;1.4;90.7
51195;BME280;37259;49.972;19.850;2023-01-25T00:45:59;100690;;;1.4;90.7
51195;BME280;37259;49.972;19.850;2023-01-25T00:46:58;100690;;;1.4;90.6
51195;BME280;37259;49.972;19.850;2023-01-25T00:47:58;100690;;;1.4;90.6
51195;BME280;37259;49.972;19.850;2023-01-25T00:48:58;100690;;;1.4;90.6
51195;BME280;37259;49.972;19.850;2023-01-25T00:49:58;100690;;;1.4;90.6
51195;BME280;37259;49.972;19.850;2023-01-25T00:50:59;100690;;;1.4;90.6
51195;BME280;37259;49.972;19.850;2023-01-25T00:51:58;100690;;;1.4;90.6
51195;BME280;37259;49.972;19.850;2023-01-25T00:52:58;100690;;;1.4;90.4
51195;BME280;37259;49.972;19.850;2023-01-25T00:53:58;100690;;;1.4;90.4
51195;BME280;37259;49.972;19.850;2023-01-25T00:54:58;100690;;;1.5;90.4
51195;BME280;37259;49.972;19.850;2023-01-25T00:55:58;100690;;;1.5;90.4
51195;BME280;37259;49.972;19.850;2023-01-25T00:56:58;100680;;;1.5;90.4
51195;BME280;37259;49.972;19.850;2023-01-25T00:57:58;100680;;;1.5;90.4
51195;BME280;37259;49.972;19.850;2023-01-25T00:58:58;100680;;;1.5;90.4
51195;BME280;37259;49.972;19.850;2023-01-25T00:59:58;100680;;;1.5;90.4
51195;BME280;37259;49.972;19.850;2023-01-25T01:00:58;100670;;;1.5;90.4
51195;BME280;37259;49.972;19.850;2023-01-25T01:01:58;100670;;;1.5;90.4
51195;BME280;37259;49.972;19.850;2023-01-25T01:02:58;100670;;;1.5;90.4
51195;BME280;37259;49.972;19.850;2023-01-25T01:03:58;100670;;;1.5;90.4
51195;BME280;37259;49.972;19.850;2023-01-25T01:04:58;100670;;;1.6;90.3
51195;BME280;37259;49.972;19.850;2023-01-25T01:05:59;100670;;;1.6;90.3
51195;BME280;37259;49.972;19.850;2023-01-25T01:06:58;100660;;;1.6;90.2
51195;BME280;37259;49.972;19.850;2023-01-25T01:07:58;100660;;;1.6;90.2
51195;BME280;37259;49.972;19.850;2023-01-25T01:08:58;100660;;;1.6;90.2
51195;BME280;37259;49.972;19.850;2023-01-25T01:09:58;100660;;;1.6;90.2
51195;BME280;37259;49.972;19.850;2023-01-25T01:10:58;100670;;;1.6;90.1
51195;BME280;37259;49.972;19.850;2023-01-25T01:11:58;100670;;;1.6;90.1
51195;BME280;37259;49.972;19.850;2023-01-25T01:12:58;100670;;;1.7;90
51195;BME280;37259;49.972;19.850;2023-01-25T01:13:58;100670;;;1.7;90
51195;BME280;37259;49.972;19.850;2023-01-25T01:14:58;100660;;;1.6;89.8
51195;BME280;37259;49.972;19.850;2023-01-25T01:15:59;100660;;;1.6;89.8
51195;BME280;37259;49.972;19.850;2023-01-25T01:16:58;100660;;;1.6;89.8
51195;BME280;37259;49.972;19.850;2023-01-25T01:17:58;100650;;;1.7;89.8
51195;BME280;37259;49.972;19.850;2023-01-25T01:18:58;100650;;;1.7;89.7
51195;BME280;37259;49.972;19.850;2023-01-25T01:19:58;100640;;;1.7;89.7
51195;BME280;37259;49.972;19.850;2023-01-25T01:20:58;100640;;;1.7;89.7
51195;BME280;37259;49.972;19.850;2023-01-25T01:21:58;100640;;;1.7;89.6
51195;BME280;37259;49.972;19.850;2023-01-25T01:22:58;100640;;;1.7;89.6
51195;BME280;37259;49.972;19.850;2023-01-25T01:23:58;100640;;;1.7;89.6
51195;BME280;37259;49.972;19.850;2023-01-25T01:24:58;100650;;;1.7;89.5
51195;BME280;37259;49.972;19.850;2023-01-25T01:25:58;100650;;;1.7;89.5
51195;BME280;37259;49.972;19.850;2023-01-25T01:26:58;100650;;;1.7;89.5
51195;BME280;37259;49.972;19.850;2023-01-25T01:27:58;100640;;;1.7;89.4
51195;BME280;37259;49.972;19.850;2023-01-25T01:28:58;100640;;;1.7;89.2
51195;BME280;37259;49.972;19.850;2023-01-25T01:29:58;100640;;;1.7;89.2
51195;BME280;37259;49.972;19.850;2023-01-25T01:30:58;100640;;;1.7;89
51195;BME280;37259;49.972;19.850;2023-01-25T01:31:58;100640;;;1.7;89
51195;BME280;37259;49.972;19.850;2023-01-25T01:32:58;100640;;;1.7;88.9
51195;BME280;37259;49.972;19.850;2023-01-25T01:33:58;100630;;;1.7;89
51195;BME280;37259;49.972;19.850;2023-01-25T01:34:58;100630;;;1.7;89
51195;BME280;37259;49.972;19.850;2023-01-25T01:35:58;100630;;;1.7;88.8
51195;BME280;37259;49.972;19.850;2023-01-25T01:36:58;100620;;;1.7;88.8
51195;BME280;37259;49.972;19.850;2023-01-25T01:37:58;100620;;;1.7;88.8
51195;BME280;37259;49.972;19.850;2023-01-25T01:38:58;100610;;;1.7;88.9
51195;BME280;37259;49.972;19.850;2023-01-25T01:39:58;100610;;;1.7;88.9
51195;BME280;37259;49.972;19.850;2023-01-25T01:40:58;100610;;;1.7;88.8
51195;BME280;37259;49.972;19.850;2023-01-25T01:41:58;100600;;;1.6;88.7
51195;BME280;37259;49.972;19.850;2023-01-25T01:42:59;100600;;;1.6;88.7
51195;BME280;37259;49.972;19.850;2023-01-25T01:43:59;100600;;;1.7;88.6
51195;BME280;37259;49.972;19.850;2023-01-25T01:44:58;100600;;;1.7;88.6
51195;BME280;37259;49.972;19.850;2023-01-25T01:45:59;100600;;;1.7;88.6
51195;BME280;37259;49.972;19.850;2023-01-25T01:46:58;100600;;;1.7;88.6
51195;BME280;37259;49.972;19.850;2023-01-25T01:47:58;100600;;;1.7;88.6
51195;BME280;37259;49.972;19.850;2023-01-25T01:48:59;100600;;;1.7;88.6
51195;BME280;37259;49.972;19.850;2023-01-25T01:49:59;100600;;;1.7;88.6
51195;BME280;37259;49.972;19.850;2023-01-25T01:50:59;100600;;;1.7;88.6
51195;BME280;37259;49.972;19.850;2023-01-25T01:51:59;100590;;;1.6;88.4
51195;BME280;37259;49.972;19.850;2023-01-25T01:52:58;100590;;;1.6;88.4
51195;BME280;37259;49.972;19.850;2023-01-25T01:54:00;100590;;;1.6;88.4
51195;BME280;37259;49.972;19.850;2023-01-25T01:54:59;100590;;;1.6;88.4
51195;BME280;37259;49.972;19.850;2023-01-25T01:55:59;100590;;;1.6;88.4
51195;BME280;37259;49.972;19.850;2023-01-25T01:56:59;100590;;;1.6;88.4
51195;BME280;37259;49.972;19.850;2023-01-25T01:57:58;100590;;;1.6;88.4
51195;BME280;37259;49.972;19.850;2023-01-25T01:58:58;100590;;;1.5;88.4
51195;BME280;37259;49.972;19.850;2023-01-25T01:59:59;100590;;;1.5;88.4
51195;BME280;37259;49.972;19.850;2023-01-25T02:00:58;100590;;;1.5;88.4
51195;BME280;37259;49.972;19.850;2023-01-25T02:01:58;100590;;;1.5;88.4
51195;BME280;37259;49.972;19.850;2023-01-25T02:02:58;100590;;;1.4;88.5
51195;BME280;37259;49.972;19.850;2023-01-25T02:03:58;100590;;;1.4;88.5
51195;BME280;37259;49.972;19.850;2023-01-25T02:04:59;100590;;;1.4;88.6
51195;BME280;37259;49.972;19.850;2023-01-25T02:05:59;100580;;;1.4;88.7
51195;BME280;37259;49.972;19.850;2023-01-25T02:06:59;100580;;;1.4;88.7
51195;BME280;37259;49.972;19.850;2023-01-25T02:07:58;100580;;;1.4;88.7
51195;BME280;37259;49.972;19.850;2023-01-25T02:08:58;100580;;;1.5;88.7
51195;BME280;37259;49.972;19.850;2023-01-25T02:09:59;100580;;;1.5;88.7
51195;BME280;37259;49.972;19.850;2023-01-25T02:10:59;100580;;;1.5;88.8
51195;BME280;37259;49.972;19.850;2023-01-25T02:11:58;100580;;;1.5;88.8
51195;BME280;37259;49.972;19.850;2023-01-25T02:12:58;100570;;;1.5;88.8
51195;BME280;37259;49.972;19.850;2023-01-25T02:13:58;100570;;;1.5;88.8
51195;BME280;37259;49.972;19.850;2023-01-25T02:14:58;100570;;;1.6;88.8
51195;BME280;37259;49.972;19.850;2023-01-25T02:15:58;100570;;;1.6;88.8
51195;BME280;37259;49.972;19.850;2023-01-25T02:16:58;100570;;;1.6;88.8
51195;BME280;37259;49.972;19.850;2023-01-25T02:17:58;100570;;;1.6;88.8
51195;BME280;37259;49.972;19.850;2023-01-25T02:18:58;100580;;;1.6;88.8
51195;BME280;37259;49.972;19.850;2023-01-25T02:19:59;100580;;;1.6;88.8
51195;BME280;37259;49.972;19.850;2023-01-25T02:20:58;100570;;;1.6;88.7
51195;BME280;37259;49.972;19.850;2023-01-25T02:21:58;100570;;;1.6;88.7
51195;BME280;37259;49.972;19.850;2023-01-25T02:22:59;100570;;;1.6;88.7
51195;BME280;37259;49.972;19.850;2023-01-25T02:24:00;100570;;;1.6;88.7
51195;BME280;37259;49.972;19.850;2023-01-25T02:25:01;100570;;;1.6;88.7
51195;BME280;37259;49.972;19.850;2023-01-25T02:25:59;100570;;;1.7;88.8
51195;BME280;37259;49.972;19.850;2023-01-25T02:26:58;100570;;;1.7;88.8
51195;BME280;37259;49.972;19.850;2023-01-25T02:28:03;100580;;;1.7;88.7
51195;BME280;37259;49.972;19.850;2023-01-25T02:28:59;100580;;;1.7;88.7
51195;BME280;37259;49.972;19.850;2023-01-25T02:29:58;100580;;;1.6;88.7
51195;BME280;37259;49.972;19.850;2023-01-25T02:30:58;100580;;;1.6;88.6
51195;BME280;37259;49.972;19.850;2023-01-25T02:31:59;100570;;;1.6;88.5
51195;BME280;37259;49.972;19.850;2023-01-25T02:32:58;100570;;;1.6;88.5
51195;BME280;37259;49.972;19.850;2023-01-25T02:33:58;100580;;;1.6;88.6
51195;BME280;37259;49.972;19.850;2023-01-25T02:34:58;100580;;;1.6;88.6
51195;BME280;37259;49.972;19.850;2023-01-25T02:35:59;100580;;;1.5;88.5
51195;BME280;37259;49.972;19.850;2023-01-25T02:36:58;100580;;;1.5;88.5
51195;BME280;37259;49.972;19.850;2023-01-25T02:37:58;100580;;;1.5;88.5
51195;BME280;37259;49.972;19.850;2023-01-25T02:38:59;100580;;;1.6;88.5
51195;BME280;37259;49.972;19.850;2023-01-25T02:39:58;100580;;;1.6;88.6
51195;BME280;37259;49.972;19.850;2023-01-25T02:40:59;100580;;;1.6;88.6
51195;BME280;37259;49.972;19.850;2023-01-25T02:41:58;100580;;;1.7;88.6
51195;BME280;37259;49.972;19.850;2023-01-25T02:42:58;100580;;;1.7;88.6
51195;BME280;37259;49.972;19.850;2023-01-25T02:43:59;100580;;;1.7;88.7
51195;BME280;37259;49.972;19.850;2023-01-25T02:44:58;100580;;;1.8;88.7
51195;BME280;37259;49.972;19.850;2023-01-25T02:46:00;100580;;;1.8;88.7
51195;BME280;37259;49.972;19.850;2023-01-25T02:46:58;100580;;;1.8;88.7
51195;BME280;37259;49.972;19.850;2023-01-25T02:47:58;100580;;;1.8;88.7
51195;BME280;37259;49.972;19.850;2023-01-25T02:48:59;100570;;;1.8;88.6
51195;BME280;37259;49.972;19.850;2023-01-25T02:49:58;100570;;;1.8;88.6
51195;BME280;37259;49.972;19.850;2023-01-25T02:50:58;100570;;;1.8;88.6
51195;BME280;37259;49.972;19.850;2023-01-25T02:51:58;100570;;;1.8;88.6
51195;BME280;37259;49.972;19.850;2023-01-25T02:52:58;100570;;;1.8;88.5
51195;BME280;37259;49.972;19.850;2023-01-25T02:53:58;100570;;;1.9;88.5
51195;BME280;37259;49.972;19.850;2023-01-25T02:54:58;100570;;;1.9;88.5
51195;BME280;37259;49.972;19.850;2023-01-25T02:55:58;100570;;;1.9;88.5
51195;BME280;37259;49.972;19.850;2023-01-25T02:56:58;100580;;;1.9;88.5
51195;BME280;37259;49.972;19.850;2023-01-25T02:57:58;100580;;;1.9;88.5
51195;BME280;37259;49.972;19.850;2023-01-25T02:58:58;100580;;;2;88.5
51195;BME280;37259;49.972;19.850;2023-01-25T02:59:58;100580;;;2;88.5
51195;BME280;37259;49.972;19.850;2023-01-25T03:00:58;100580;;;2;88.5
51195;BME280;37259;49.972;19.850;2023-01-25T03:01:58;100580;;;2;88.5
51195;BME280;37259;49.972;19.850;2023-01-25T03:02:58;100580;;;2;88.5
51195;BME280;37259;49.972;19.850;2023-01-25T03:03:58;100580;;;2;88.3
51195;BME280;37259;49.972;19.850;2023-01-25T03:04:58;100580;;;2;88.3
51195;BME280;37259;49.972;19.850;2023-01-25T03:05:59;100570;;;1.9;88
51195;BME280;37259;49.972;19.850;2023-01-25T03:06:58;100570;;;1.9;87.9
51195;BME280;37259;49.972;19.850;2023-01-25T03:07:58;100570;;;1.9;87.9
51195;BME280;37259;49.972;19.850;2023-01-25T03:08:58;100570;;;1.9;87.9
51195;BME280;37259;49.972;19.850;2023-01-25T03:09:58;100570;;;1.9;87.9
51195;BME280;37259;49.972;19.850;2023-01-25T03:10:59;100570;;;1.9;87.9
51195;BME280;37259;49.972;19.850;2023-01-25T03:11:58;100570;;;1.9;88
51195;BME280;37259;49.972;19.850;2023-01-25T03:12:58;100570;;;1.9;88
51195;BME280;37259;49.972;19.850;2023-01-25T03:13:58;100570;;;1.9;88
51195;BME280;37259;49.972;19.850;2023-01-25T03:14:58;100570;;;1.9;87.9
51195;BME280;37259;49.972;19.850;2023-01-25T03:15:59;100570;;;1.9;87.9
51195;BME280;37259;49.972;19.850;2023-01-25T03:16:58;100570;;;1.9;87.9
51195;BME280;37259;49.972;19.850;2023-01-25T03:17:58;100570;;;1.9;87.9
51195;BME280;37259;49.972;19.850;2023-01-25T03:18:58;100570;;;1.9;87.9
51195;BME280;37259;49.972;19.850;2023-01-25T03:19:58;100570;;;1.9;87.9
51195;BME280;37259;49.972;19.850;2023-01-25T03:21:03;100570;;;1.9;87.9
51195;BME280;37259;49.972;19.850;2023-01-25T03:21:58;100570;;;2;88
51195;BME280;37259;49.972;19.850;2023-01-25T03:22:58;100570;;;2;88
51195;BME280;37259;49.972;19.850;2023-01-25T03:23:59;100570;;;2;87.9
51195;BME280;37259;49.972;19.850;2023-01-25T03:24:58;100570;;;2;87.9
51195;BME280;37259;49.972;19.850;2023-01-25T03:26:06;100570;;;2;87.9
51195;BME280;37259;49.972;19.850;2023-01-25T03:26:58;100570;;;2;87.9
51195;BME280;37259;49.972;19.850;2023-01-25T03:27:59;100570;;;1.9;87.8
51195;BME280;37259;49.972;19.850;2023-01-25T03:28:58;100570;;;1.9;87.9
51195;BME280;37259;49.972;19.850;2023-01-25T03:29:58;100570;;;1.9;87.9
51195;BME280;37259;49.972;19.850;2023-01-25T03:30:58;100570;;;1.9;87.9
51195;BME280;37259;49.972;19.850;2023-01-25T03:31:58;100570;;;1.9;87.9
51195;BME280;37259;49.972;19.850;2023-01-25T03:32:58;100570;;;1.9;87.9
51195;BME280;37259;49.972;19.850;2023-01-25T03:33:58;100570;;;1.9;87.9
51195;BME280;37259;49.972;19.850;2023-01-25T03:34:58;100570;;;1.9;87.9
51195;BME280;37259;49.972;19.850;2023-01-25T03:35:58;100570;;;1.9;87.9
51195;BME280;37259;49.972;19.850;2023-01-25T03:36:58;100570;;;1.9;87.9
51195;BME280;37259;49.972;19.850;2023-01-25T03:37:59;100570;;;1.9;88
51195;BME280;37259;49.972;19.850;2023-01-25T03:38:58;100570;;;1.9;88
51195;BME280;37259;49.972;19.850;2023-01-25T03:39:58;100570;;;1.8;88
51195;BME280;37259;49.972;19.850;2023-01-25T03:40:58;100570;;;1.8;88
51195;BME280;37259;49.972;19.850;2023-01-25T03:41:58;100570;;;1.8;88
51195;BME280;37259;49.972;19.850;2023-01-25T03:42:58;100570;;;1.8;88.1
51195;BME280;37259;49.972;19.850;2023-01-25T03:43:58;100570;;;1.8;88.1
51195;BME280;37259;49.972;19.850;2023-01-25T03:44:58;100560;;;1.8;88.2
51195;BME280;37259;49.972;19.850;2023-01-25T03:45:59;100560;;;1.8;88.2
51195;BME280;37259;49.972;19.850;2023-01-25T03:46:59;100560;;;1.9;88.2
51195;BME280;37259;49.972;19.850;2023-01-25T03:47:58;100560;;;1.9;88.2
51195;BME280;37259;49.972;19.850;2023-01-25T03:48:58;100560;;;1.9;88.3
51195;BME280;37259;49.972;19.850;2023-01-25T03:49:58;100560;;;1.9;88.3
51195;BME280;37259;49.972;19.850;2023-01-25T03:50:58;100560;;;1.9;88.3
51195;BME280;37259;49.972;19.850;2023-01-25T03:51:58;100560;;;1.9;88.3
51195;BME280;37259;49.972;19.850;2023-01-25T03:52:58;100560;;;1.9;88.3
51195;BME280;37259;49.972;19.850;2023-01-25T03:53:58;100560;;;1.9;88.3
51195;BME280;37259;49.972;19.850;2023-01-25T03:54:58;100560;;;1.8;88.3
51195;BME280;37259;49.972;19.850;2023-01-25T03:55:59;100560;;;1.8;88.3
51195;BME280;37259;49.972;19.850;2023-01-25T03:56:58;100560;;;1.8;88.3
51195;BME280;37259;49.972;19.850;2023-01-25T03:57:58;100550;;;1.8;88.3
51195;BME280;37259;49.972;19.850;2023-01-25T03:58:58;100550;;;1.9;88.3
51195;BME280;37259;49.972;19.850;2023-01-25T03:59:58;100550;;;1.9;88.3
51195;BME280;37259;49.972;19.850;2023-01-25T04:00:59;100560;;;1.9;88.3
51195;BME280;37259;49.972;19.850;2023-01-25T04:01:58;100560;;;1.9;88.3
51195;BME280;37259;49.972;19.850;2023-01-25T04:02:58;100560;;;1.9;88.3
51195;BME280;37259;49.972;19.850;2023-01-25T04:03:58;100560;;;2;88.5
51195;BME280;37259;49.972;19.850;2023-01-25T04:04:58;100560;;;2;88.5
51195;BME280;37259;49.972;19.850;2023-01-25T04:05:58;100560;;;2;88.5
51195;BME280;37259;49.972;19.850;2023-01-25T04:06:58;100560;;;2;88.5
51195;BME280;37259;49.972;19.850;2023-01-25T04:07:58;100560;;;2;88.4
51195;BME280;37259;49.972;19.850;2023-01-25T04:08:58;100550;;;2;88.4
51195;BME280;37259;49.972;19.850;2023-01-25T04:09:59;100550;;;2;88.4
51195;BME280;37259;49.972;19.850;2023-01-25T04:10:59;100550;;;1.9;88.4
51195;BME280;37259;49.972;19.850;2023-01-25T04:11:58;100550;;;1.9;88.4
51195;BME280;37259;49.972;19.850;2023-01-25T04:12:58;100550;;;2;88.4
51195;BME280;37259;49.972;19.850;2023-01-25T04:13:58;100550;;;2;88.4
51195;BME280;37259;49.972;19.850;2023-01-25T04:14:58;100550;;;2;88.4
51195;BME280;37259;49.972;19.850;2023-01-25T04:15:58;100550;;;2;88.4
51195;BME280;37259;49.972;19.850;2023-01-25T04:16:58;100550;;;2;88.4
51195;BME280;37259;49.972;19.850;2023-01-25T04:17:58;100550;;;2;88.4
51195;BME280;37259;49.972;19.850;2023-01-25T04:18:59;100540;;;2;88.4
51195;BME280;37259;49.972;19.850;2023-01-25T04:19:58;100550;;;2;88.4
51195;BME280;37259;49.972;19.850;2023-01-25T04:20:58;100550;;;2;88.4
51195;BME280;37259;49.972;19.850;2023-01-25T04:21:58;100550;;;2;88.4
51195;BME280;37259;49.972;19.850;2023-01-25T04:22:58;100540;;;2;88.4
51195;BME280;37259;49.972;19.850;2023-01-25T04:23:58;100540;;;2;88.4
51195;BME280;37259;49.972;19.850;2023-01-25T04:24:58;100540;;;2;88.4
51195;BME280;37259;49.972;19.850;2023-01-25T04:25:59;100540;;;2;88.4
51195;BME280;37259;49.972;19.850;2023-01-25T04:26:58;100540;;;2;88.4
51195;BME280;37259;49.972;19.850;2023-01-25T04:27:59;100530;;;2;88.4
51195;BME280;37259;49.972;19.850;2023-01-25T04:28:58;100530;;;2;88.4
51195;BME280;37259;49.972;19.850;2023-01-25T04:29:58;100530;;;2;88.4
51195;BME280;37259;49.972;19.850;2023-01-25T04:30:58;100520;;;2;88.4
51195;BME280;37259;49.972;19.850;2023-01-25T04:31:58;100520;;;2;88.4
51195;BME280;37259;49.972;19.850;2023-01-25T04:33:01;100520;;;2;88.4
51195;BME280;37259;49.972;19.850;2023-01-25T04:33:58;100520;;;2;88.3
51195;BME280;37259;49.972;19.850;2023-01-25T04:34:58;100520;;;2;88.3
51195;BME280;37259;49.972;19.850;2023-01-25T04:35:58;100520;;;2;88.3
51195;BME280;37259;49.972;19.850;2023-01-25T04:36:58;100520;;;2.1;88.4
51195;BME280;37259;49.972;19.850;2023-01-25T04:37:58;100520;;;2.1;88.4
51195;BME280;37259;49.972;19.850;2023-01-25T04:38:58;100510;;;2.1;88.4
51195;BME280;37259;49.972;19.850;2023-01-25T04:39:58;100510;;;2.1;88.4
51195;BME280;37259;49.972;19.850;2023-01-25T04:40:58;100510;;;2.1;88.4
51195;BME280;37259;49.972;19.850;2023-01-25T04:41:58;100510;;;2.1;88.4
51195;BME280;37259;49.972;19.850;2023-01-25T04:42:58;100510;;;2.1;88.3
51195;BME280;37259;49.972;19.850;2023-01-25T04:43:58;100520;;;2.2;88.3
51195;BME280;37259;49.972;19.850;2023-01-25T04:44:58;100520;;;2.2;88.3
51195;BME280;37259;49.972;19.850;2023-01-25T04:45:59;100520;;;2.1;88.2
51195;BME280;37259;49.972;19.850;2023-01-25T04:46:58;100510;;;2.1;88.2
51195;BME280;37259;49.972;19.850;2023-01-25T04:47:59;100510;;;2.1;88.2
51195;BME280;37259;49.972;19.850;2023-01-25T04:48:58;100510;;;2.1;88.1
51195;BME280;37259;49.972;19.850;2023-01-25T04:49:58;100510;;;2.1;88.1
51195;BME280;37259;49.972;19.850;2023-01-25T04:50:58;100510;;;2.1;88.1
51195;BME280;37259;49.972;19.850;2023-01-25T04:51:58;100510;;;2.1;88.1
51195;BME280;37259;49.972;19.850;2023-01-25T04:52:58;100510;;;2.1;88.1
51195;BME280;37259;49.972;19.850;2023-01-25T04:53:58;100510;;;2.1;88.1
51195;BME280;37259;49.972;19.850;2023-01-25T04:54:58;100510;;;2.1;88.1
51195;BME280;37259;49.972;19.850;2023-01-25T04:55:58;100510;;;2.1;88.1
51195;BME280;37259;49.972;19.850;2023-01-25T04:56:58;100510;;;2.1;88.1
51195;BME280;37259;49.972;19.850;2023-01-25T04:57:58;100510;;;2;88
51195;BME280;37259;49.972;19.850;2023-01-25T04:58:58;100510;;;2;88
51195;BME280;37259;49.972;19.850;2023-01-25T04:59:58;100510;;;1.9;87.9
51195;BME280;37259;49.972;19.850;2023-01-25T05:00:59;100510;;;1.9;87.9
51195;BME280;37259;49.972;19.850;2023-01-25T05:01:58;100510;;;1.9;88
51195;BME280;37259;49.972;19.850;2023-01-25T05:02:58;100510;;;1.9;88.1
51195;BME280;37259;49.972;19.850;2023-01-25T05:03:58;100510;;;1.9;88.1
51195;BME280;37259;49.972;19.850;2023-01-25T05:04:58;100510;;;1.9;88.1
51195;BME280;37259;49.972;19.850;2023-01-25T05:05:58;100510;;;1.9;88.2
51195;BME280;37259;49.972;19.850;2023-01-25T05:06:58;100510;;;1.9;88.2
51195;BME280;37259;49.972;19.850;2023-01-25T05:07:58;100510;;;2;88.3
51195;BME280;37259;49.972;19.850;2023-01-25T05:08:58;100510;;;1.9;88.3
51195;BME280;37259;49.972;19.850;2023-01-25T05:09:58;100510;;;1.9;88.3
51195;BME280;37259;49.972;19.850;2023-01-25T05:10:58;100510;;;1.9;88.3
51195;BME280;37259;49.972;19.850;2023-01-25T05:11:58;100510;;;1.9;88.3
51195;BME280;37259;49.972;19.850;2023-01-25T05:12:58;100510;;;1.9;88.3
51195;BME280;37259;49.972;19.850;2023-01-25T05:13:58;100510;;;1.9;88.4
51195;BME280;37259;49.972;19.850;2023-01-25T05:14:58;100510;;;1.9;88.4
51195;BME280;37259;49.972;19.850;2023-01-25T05:15:58;100510;;;1.9;88.4
51195;BME280;37259;49.972;19.850;2023-01-25T05:16:58;100510;;;1.9;88.4
51195;BME280;37259;49.972;19.850;2023-01-25T05:17:58;100510;;;1.8;88.5
51195;BME280;37259;49.972;19.850;2023-01-25T05:18:58;100510;;;1.8;88.5
51195;BME280;37259;49.972;19.850;2023-01-25T05:19:58;100510;;;1.9;88.5
51195;BME280;37259;49.972;19.850;2023-01-25T05:20:58;100510;;;1.8;88.6
51195;BME280;37259;49.972;19.850;2023-01-25T05:21:58;100510;;;1.9;88.6
51195;BME280;37259;49.972;19.850;2023-01-25T05:22:58;100510;;;1.9;88.6
51195;BME280;37259;49.972;19.850;2023-01-25T05:23:58;100510;;;1.9;88.6
51195;BME280;37259;49.972;19.850;2023-01-25T05:24:58;100510;;;1.9;88.6
51195;BME280;37259;49.972;19.850;2023-01-25T05:25:58;100500;;;1.9;88.7
51195;BME280;37259;49.972;19.850;2023-01-25T05:26:58;100500;;;1.9;88.7
51195;BME280;37259;49.972;19.850;2023-01-25T05:27:58;100500;;;1.9;88.7
51195;BME280;37259;49.972;19.850;2023-01-25T05:28:58;100500;;;1.9;88.7
51195;BME280;37259;49.972;19.850;2023-01-25T05:29:58;100500;;;1.9;88.7
51195;BME280;37259;49.972;19.850;2023-01-25T05:31:01;100500;;;1.9;88.7
51195;BME280;37259;49.972;19.850;2023-01-25T05:31:58;100500;;;2;88.7
51195;BME280;37259;49.972;19.850;2023-01-25T05:32:58;100500;;;2;88.7
51195;BME280;37259;49.972;19.850;2023-01-25T05:33:58;100500;;;2;88.7
51195;BME280;37259;49.972;19.850;2023-01-25T05:34:58;100500;;;2;88.7
51195;BME280;37259;49.972;19.850;2023-01-25T05:35:58;100500;;;2;88.7
51195;BME280;37259;49.972;19.850;2023-01-25T05:36:58;100500;;;2;88.7
51195;BME280;37259;49.972;19.850;2023-01-25T05:37:58;100500;;;2;88.7